Time;durP1;ratioP1;P1;durP2;ratioP2;P2;SDS_P1;SDS_P2;PMS_P1;PMS_P2;Temp;Humidity;BMP_temperature;BMP_pressure;BME280_temperature;BME280_humidity;BME280_pressure;Samples;Min_cycle;Max_cycle;Signal;HPM_P1;HPM_P2
2024/04/26 00:02:11;;;;;;;;;;;6.40;99.90;;;;;;5495217;26;19934;-78
2024/04/26 00:04:36;;;;;;;;;;;6.40;99.90;;;;;;5465056;26;19928;-77
2024/04/26 00:07:06;;;;;;;;;;;6.40;99.90;;;;;;5444548;26;19939;-79
2024/04/26 00:09:33;;;;;;;;;;;6.40;99.90;;;;;;5463961;26;19928;-79
2024/04/26 00:12:00;;;;;;;;;;;6.40;99.90;;;;;;5520328;26;19927;-77
2024/04/26 00:14:27;;;;;;;;;;;6.40;99.90;;;;;;5455721;26;19928;-78
2024/04/26 00:16:53;;;;;;;;;;;6.40;99.90;;;;;;5421563;26;19929;-78
2024/04/26 00:19:18;;;;;;;;;;;6.30;99.90;;;;;;5482422;26;19929;-78
2024/04/26 00:21:44;;;;;;;;;;;6.40;99.90;;;;;;5456958;26;19934;-78
2024/04/26 00:24:17;;;;;;;;;;;6.30;99.90;;;;;;5418087;26;19928;-77
2024/04/26 00:26:48;;;;;;;;;;;6.40;99.90;;;;;;5485335;26;19928;-77
2024/04/26 00:29:17;;;;;;;;;;;6.40;99.90;;;;;;5473003;26;20348;-77
2024/04/26 00:31:44;;;;;;;;;;;6.30;99.90;;;;;;5489071;26;19932;-77
2024/04/26 00:34:11;;;;;;;;;;;6.30;99.90;;;;;;5467722;26;20296;-78
2024/04/26 00:36:40;;;;;;;;;;;6.30;99.90;;;;;;5424377;26;19993;-79
2024/04/26 00:39:08;;;;;;;;;;;6.30;99.90;;;;;;5442233;26;19934;-78
2024/04/26 00:41:34;;;;;;;;;;;6.30;99.90;;;;;;5490354;26;19928;-77
2024/04/26 00:44:12;;;;;;;;;;;6.30;99.90;;;;;;5466165;26;19986;-77
2024/04/26 00:46:40;;;;;;;;;;;6.30;99.90;;;;;;5393411;26;19936;-78
2024/04/26 00:49:07;;;;;;;;;;;6.30;99.90;;;;;;5450133;26;19928;-76
2024/04/26 00:51:35;;;;;;;;;;;6.30;99.90;;;;;;5452339;26;19928;-75
2024/04/26 00:54:02;;;;;;;;;;;6.30;99.90;;;;;;5421773;26;20257;-75
2024/04/26 00:56:29;;;;;;;;;;;6.30;99.90;;;;;;5452873;26;20008;-75
2024/04/26 00:58:56;;;;;;;;;;;6.20;99.90;;;;;;5402048;26;19938;-75
2024/04/26 01:01:23;;;;;;;;;;;6.20;99.90;;;;;;5420675;26;20345;-75
2024/04/26 01:03:50;;;;;;;;;;;6.20;99.90;;;;;;5451114;26;19940;-76
2024/04/26 01:06:17;;;;;;;;;;;6.30;99.90;;;;;;5427979;26;19927;-76
2024/04/26 01:08:42;;;;;;;;;;;6.20;99.90;;;;;;5414162;26;19932;-76
2024/04/26 01:11:11;;;;;;;;;;;6.20;99.90;;;;;;5468235;26;19928;-77
2024/04/26 01:13:39;;;;;;;;;;;6.20;99.90;;;;;;5456929;26;20238;-77
2024/04/26 01:16:06;;;;;;;;;;;6.20;99.90;;;;;;5458350;26;20352;-76
2024/04/26 01:18:34;;;;;;;;;;;6.20;99.90;;;;;;5422252;26;19928;-77
2024/04/26 01:21:01;;;;;;;;;;;6.20;99.90;;;;;;5445774;26;19929;-77
2024/04/26 01:23:31;;;;;;;;;;;6.20;99.90;;;;;;5439111;26;19936;-78
2024/04/26 01:25:59;;;;;;;;;;;6.20;99.90;;;;;;5426708;26;19969;-78
2024/04/26 01:28:26;;;;;;;;;;;6.10;99.90;;;;;;5451914;26;19928;-77
2024/04/26 01:30:53;;;;;;;;;;;6.10;99.90;;;;;;5468779;26;19929;-78
2024/04/26 01:33:20;;;;;;;;;;;6.00;99.90;;;;;;5415814;26;19974;-77
2024/04/26 01:35:47;;;;;;;;;;;6.10;99.90;;;;;;5451524;26;19941;-77
2024/04/26 01:38:12;;;;;;;;;;;6.10;99.90;;;;;;5446112;26;19936;-78
2024/04/26 01:40:39;;;;;;;;;;;6.10;99.90;;;;;;5446378;26;19929;-78
2024/04/26 01:43:07;;;;;;;;;;;6.10;99.90;;;;;;5474986;26;19994;-76
2024/04/26 01:45:34;;;;;;;;;;;6.10;99.90;;;;;;5445941;26;19936;-76
2024/04/26 01:48:04;;;;;;;;;;;6.10;99.90;;;;;;5451710;26;19928;-77
2024/04/26 01:50:31;;;;;;;;;;;6.00;99.90;;;;;;5416102;26;20437;-77
2024/04/26 01:53:00;;;;;;;;;;;6.10;99.90;;;;;;5422652;26;20348;-77
2024/04/26 01:55:26;;;;;;;;;;;6.10;99.90;;;;;;5445292;26;19929;-77
2024/04/26 01:57:53;;;;;;;;;;;6.10;99.90;;;;;;5432490;26;20375;-77
2024/04/26 02:00:20;;;;;;;;;;;6.10;99.90;;;;;;5433785;26;19929;-77
2024/04/26 02:02:47;;;;;;;;;;;6.10;99.90;;;;;;5423333;26;19928;-77
2024/04/26 02:05:14;;;;;;;;;;;6.10;99.90;;;;;;5444429;26;19940;-76
2024/04/26 02:07:44;;;;;;;;;;;6.10;99.90;;;;;;5415702;26;19937;-77
2024/04/26 02:10:14;;;;;;;;;;;6.10;99.90;;;;;;5461636;26;19936;-77
2024/04/26 02:12:41;;;;;;;;;;;6.10;99.90;;;;;;5444510;26;19944;-76
2024/04/26 02:15:08;;;;;;;;;;;6.10;99.90;;;;;;5426431;26;20372;-77
2024/04/26 02:17:37;;;;;;;;;;;6.00;99.90;;;;;;5452580;26;19928;-76
2024/04/26 02:20:05;;;;;;;;;;;6.00;99.90;;;;;;5444711;26;19928;-77
2024/04/26 02:22:32;;;;;;;;;;;6.10;99.90;;;;;;5396342;26;19996;-77
2024/04/26 02:24:59;;;;;;;;;;;6.10;99.90;;;;;;5445339;26;19940;-77
2024/04/26 02:27:26;;;;;;;;;;;6.10;99.90;;;;;;5382158;26;19929;-78
2024/04/26 02:29:53;;;;;;;;;;;6.10;99.90;;;;;;5400504;26;19936;-77
2024/04/26 02:32:18;;;;;;;;;;;6.10;99.90;;;;;;5414869;26;20246;-77
2024/04/26 02:34:45;;;;;;;;;;;6.10;99.90;;;;;;5387771;26;19957;-78
2024/04/26 02:37:12;;;;;;;;;;;6.10;99.90;;;;;;5411832;26;19938;-77
2024/04/26 02:39:39;;;;;;;;;;;6.10;99.90;;;;;;5444108;26;19933;-77
2024/04/26 02:42:06;;;;;;;;;;;6.10;99.90;;;;;;5381337;26;19937;-77
2024/04/26 02:44:32;;;;;;;;;;;6.10;99.90;;;;;;5411232;26;19937;-77
2024/04/26 02:46:59;;;;;;;;;;;6.10;99.90;;;;;;5388508;26;19969;-77
2024/04/26 02:49:26;;;;;;;;;;;6.10;99.90;;;;;;5423503;26;20370;-77
2024/04/26 02:51:54;;;;;;;;;;;6.10;99.90;;;;;;5382883;26;19939;-77
2024/04/26 02:54:21;;;;;;;;;;;6.10;99.90;;;;;;5426096;26;19932;-77
2024/04/26 02:56:47;;;;;;;;;;;6.10;99.90;;;;;;5448465;26;19940;-77
2024/04/26 02:59:13;;;;;;;;;;;6.10;99.90;;;;;;5411435;26;20361;-77
2024/04/26 03:01:43;;;;;;;;;;;6.10;99.90;;;;;;5412627;26;20328;-76
2024/04/26 03:04:10;;;;;;;;;;;6.10;99.90;;;;;;5441886;26;19995;-76
2024/04/26 03:06:39;;;;;;;;;;;6.10;99.90;;;;;;5359340;26;19936;-77
2024/04/26 03:09:06;;;;;;;;;;;6.20;99.90;;;;;;5463391;26;19937;-77
2024/04/26 03:11:33;;;;;;;;;;;6.20;99.90;;;;;;5382600;26;20400;-77
2024/04/26 03:14:00;;;;;;;;;;;6.20;99.90;;;;;;5396505;26;19957;-77
2024/04/26 03:16:27;;;;;;;;;;;6.20;99.90;;;;;;5388761;26;20292;-77
2024/04/26 03:18:53;;;;;;;;;;;6.20;99.90;;;;;;5416016;26;19961;-77
2024/04/26 03:21:20;;;;;;;;;;;6.20;99.90;;;;;;5425802;26;19932;-77
2024/04/26 03:23:47;;;;;;;;;;;6.30;99.90;;;;;;5454530;26;20245;-77
2024/04/26 03:26:14;;;;;;;;;;;6.20;99.90;;;;;;5454069;26;19960;-77
2024/04/26 03:28:49;;;;;;;;;;;6.20;99.90;;;;;;5454312;26;19932;-77
2024/04/26 03:31:22;;;;;;;;;;;6.20;99.90;;;;;;5425827;26;19939;-76
2024/04/26 03:33:49;;;;;;;;;;;6.30;99.90;;;;;;5460049;26;20251;-77
2024/04/26 03:36:15;;;;;;;;;;;6.30;99.90;;;;;;5427669;26;19932;-77
2024/04/26 03:38:42;;;;;;;;;;;6.30;99.90;;;;;;5459753;26;19932;-77
2024/04/26 03:41:07;;;;;;;;;;;6.30;99.90;;;;;;5453185;26;19928;-78
2024/04/26 03:43:34;;;;;;;;;;;6.30;99.90;;;;;;5430106;26;19952;-77
2024/04/26 03:46:01;;;;;;;;;;;6.30;99.90;;;;;;5460284;26;19928;-76
2024/04/26 03:48:28;;;;;;;;;;;6.30;99.90;;;;;;5459570;26;20021;-77
2024/04/26 03:50:55;;;;;;;;;;;6.30;99.90;;;;;;5489809;26;19936;-77
2024/04/26 03:53:21;;;;;;;;;;;6.30;99.90;;;;;;5478348;26;19929;-76
2024/04/26 03:55:48;;;;;;;;;;;6.30;99.90;;;;;;5491579;26;19931;-77
2024/04/26 03:58:15;;;;;;;;;;;6.30;99.90;;;;;;5459639;26;19936;-77
2024/04/26 04:00:42;;;;;;;;;;;6.20;99.90;;;;;;5459957;26;20289;-75
2024/04/26 04:03:09;;;;;;;;;;;6.20;99.90;;;;;;5459714;26;19932;-76
2024/04/26 04:05:39;;;;;;;;;;;6.20;99.90;;;;;;5430817;26;19936;-77
2024/04/26 04:08:07;;;;;;;;;;;6.20;99.90;;;;;;5397260;26;19932;-78
2024/04/26 04:10:34;;;;;;;;;;;6.20;99.90;;;;;;5489466;26;20237;-77
2024/04/26 04:13:01;;;;;;;;;;;6.20;99.90;;;;;;5455160;26;20248;-76
2024/04/26 04:15:28;;;;;;;;;;;6.20;99.90;;;;;;5453061;26;19936;-77
2024/04/26 04:17:54;;;;;;;;;;;6.20;99.90;;;;;;5453923;26;19940;-76
2024/04/26 04:20:21;;;;;;;;;;;6.10;99.90;;;;;;5423025;26;20426;-76
2024/04/26 04:22:48;;;;;;;;;;;6.10;99.90;;;;;;5431134;26;19974;-76
2024/04/26 04:25:15;;;;;;;;;;;6.00;99.90;;;;;;5458472;26;19928;-75
2024/04/26 04:27:42;;;;;;;;;;;6.00;99.90;;;;;;5485437;26;19928;-76
2024/04/26 04:30:09;;;;;;;;;;;6.00;99.90;;;;;;5482952;26;19928;-75
2024/04/26 04:32:36;;;;;;;;;;;6.00;99.90;;;;;;5451802;26;19929;-75
2024/04/26 04:35:03;;;;;;;;;;;6.00;99.90;;;;;;5397847;26;19935;-75
2024/04/26 04:37:30;;;;;;;;;;;6.00;99.90;;;;;;5397710;26;19994;-76
2024/04/26 04:39:56;;;;;;;;;;;6.00;99.90;;;;;;5489217;26;19927;-76
2024/04/26 04:42:23;;;;;;;;;;;6.00;99.90;;;;;;5488554;26;19928;-76
2024/04/26 04:44:50;;;;;;;;;;;6.00;99.90;;;;;;5488631;26;19960;-75
2024/04/26 04:47:17;;;;;;;;;;;6.00;99.90;;;;;;5458393;26;19993;-75
2024/04/26 04:49:44;;;;;;;;;;;6.00;99.90;;;;;;5452778;26;19935;-76
2024/04/26 04:52:10;;;;;;;;;;;6.00;99.90;;;;;;5422450;26;19935;-75
2024/04/26 04:54:39;;;;;;;;;;;6.00;99.90;;;;;;5411027;26;19955;-77
2024/04/26 04:57:06;;;;;;;;;;;6.00;99.90;;;;;;5459484;26;19927;-76
2024/04/26 04:59:33;;;;;;;;;;;5.90;99.90;;;;;;5456608;26;19935;-76
2024/04/26 05:02:00;;;;;;;;;;;6.00;99.90;;;;;;5451107;26;19935;-76
2024/04/26 05:04:27;;;;;;;;;;;5.90;99.90;;;;;;5421364;26;19929;-75
2024/04/26 05:06:54;;;;;;;;;;;5.90;99.90;;;;;;5392287;26;19928;-75
2024/04/26 05:09:20;;;;;;;;;;;5.90;99.90;;;;;;5421789;26;19929;-75
2024/04/26 05:11:46;;;;;;;;;;;6.00;99.90;;;;;;5452091;26;19928;-75
2024/04/26 05:14:13;;;;;;;;;;;5.90;99.90;;;;;;5457719;26;20588;-76
2024/04/26 05:16:40;;;;;;;;;;;6.00;99.90;;;;;;5457804;26;19935;-77
2024/04/26 05:19:09;;;;;;;;;;;6.00;99.90;;;;;;5451756;26;19944;-76
2024/04/26 05:21:35;;;;;;;;;;;6.00;99.90;;;;;;5451510;26;19928;-77
2024/04/26 05:24:02;;;;;;;;;;;6.10;99.90;;;;;;5421859;26;19958;-75
2024/04/26 05:26:29;;;;;;;;;;;6.10;99.90;;;;;;5481942;26;19937;-76
2024/04/26 05:28:56;;;;;;;;;;;6.10;99.90;;;;;;5452069;26;19928;-77
2024/04/26 05:31:23;;;;;;;;;;;6.20;99.90;;;;;;5415306;26;20764;-75
2024/04/26 05:33:50;;;;;;;;;;;6.20;99.90;;;;;;5446197;26;19933;-76
2024/04/26 05:36:17;;;;;;;;;;;6.30;99.90;;;;;;5423117;26;19935;-75
2024/04/26 05:38:43;;;;;;;;;;;6.30;99.90;;;;;;5415365;26;19940;-76
2024/04/26 05:41:13;;;;;;;;;;;6.40;99.90;;;;;;5445411;26;19929;-77
2024/04/26 05:43:40;;;;;;;;;;;6.40;99.90;;;;;;5441495;26;19956;-75
2024/04/26 05:46:10;;;;;;;;;;;6.40;99.90;;;;;;5472164;26;20345;-75
2024/04/26 05:48:37;;;;;;;;;;;6.50;99.90;;;;;;5450878;26;19933;-76
2024/04/26 05:51:05;;;;;;;;;;;6.50;99.90;;;;;;5444498;26;19962;-77
2024/04/26 05:53:32;;;;;;;;;;;6.50;99.90;;;;;;5463212;26;19936;-76
2024/04/26 05:56:00;;;;;;;;;;;6.50;99.90;;;;;;5405522;26;19928;-76
2024/04/26 05:58:27;;;;;;;;;;;6.50;99.90;;;;;;5475486;26;19937;-75
2024/04/26 06:00:53;;;;;;;;;;;6.50;99.90;;;;;;5477718;26;20249;-77
2024/04/26 06:03:20;;;;;;;;;;;6.60;99.90;;;;;;5420845;26;19994;-76
2024/04/26 06:05:47;;;;;;;;;;;6.60;99.90;;;;;;5418797;26;19935;-76
2024/04/26 06:08:14;;;;;;;;;;;6.60;99.90;;;;;;5463551;26;20349;-76
2024/04/26 06:10:40;;;;;;;;;;;6.60;99.90;;;;;;5418782;26;19936;-76
2024/04/26 06:13:07;;;;;;;;;;;6.60;99.90;;;;;;5418967;26;19953;-76
2024/04/26 06:15:36;;;;;;;;;;;6.70;99.90;;;;;;5429772;26;19944;-77
2024/04/26 06:18:04;;;;;;;;;;;6.70;99.90;;;;;;5425938;26;19939;-76
2024/04/26 06:20:32;;;;;;;;;;;6.80;99.90;;;;;;5492221;26;20026;-76
2024/04/26 06:22:59;;;;;;;;;;;6.80;99.90;;;;;;5460392;26;19948;-75
2024/04/26 06:25:26;;;;;;;;;;;6.80;99.90;;;;;;5459714;26;19928;-75
2024/04/26 06:27:53;;;;;;;;;;;6.90;99.90;;;;;;5460982;26;19952;-76
2024/04/26 06:30:20;;;;;;;;;;;7.00;99.90;;;;;;5460626;26;19939;-75
2024/04/26 06:32:47;;;;;;;;;;;7.00;99.90;;;;;;5490805;26;20237;-77
2024/04/26 06:35:13;;;;;;;;;;;7.10;99.90;;;;;;5459692;26;20259;-75
2024/04/26 06:37:40;;;;;;;;;;;7.10;99.90;;;;;;5460162;26;19928;-76
2024/04/26 06:40:07;;;;;;;;;;;7.20;99.90;;;;;;5455606;26;20609;-76
2024/04/26 06:42:34;;;;;;;;;;;7.20;99.90;;;;;;5458643;26;20290;-75
2024/04/26 06:45:01;;;;;;;;;;;7.30;99.90;;;;;;5460359;26;19943;-76
2024/04/26 06:47:28;;;;;;;;;;;7.40;99.90;;;;;;5408610;26;19929;-76
2024/04/26 06:49:55;;;;;;;;;;;7.40;99.90;;;;;;5423276;26;19997;-75
2024/04/26 06:52:22;;;;;;;;;;;7.50;99.90;;;;;;5436304;26;19936;-76
2024/04/26 06:54:50;;;;;;;;;;;7.50;99.90;;;;;;5455340;26;19928;-75
2024/04/26 06:57:19;;;;;;;;;;;7.70;99.90;;;;;;5458501;26;19939;-76
2024/04/26 06:59:46;;;;;;;;;;;7.80;99.90;;;;;;5458819;26;19934;-75
2024/04/26 07:02:15;;;;;;;;;;;7.80;99.90;;;;;;5454380;26;19935;-76
2024/04/26 07:04:42;;;;;;;;;;;7.90;99.90;;;;;;5423757;26;20356;-75
2024/04/26 07:07:09;;;;;;;;;;;8.00;99.90;;;;;;5454463;26;20245;-75
2024/04/26 07:09:36;;;;;;;;;;;8.10;99.90;;;;;;5429920;26;20364;-75
2024/04/26 07:12:03;;;;;;;;;;;8.10;99.90;;;;;;5459725;26;19936;-76
2024/04/26 07:14:30;;;;;;;;;;;8.20;99.90;;;;;;5453518;26;19934;-76
2024/04/26 07:17:04;;;;;;;;;;;8.30;99.90;;;;;;5423789;26;19994;-75
2024/04/26 07:19:31;;;;;;;;;;;8.30;99.90;;;;;;5417440;26;19936;-76
2024/04/26 07:21:59;;;;;;;;;;;8.50;99.90;;;;;;5405528;26;19929;-76
2024/04/26 07:24:26;;;;;;;;;;;8.50;99.90;;;;;;5476030;26;19939;-77
2024/04/26 07:26:53;;;;;;;;;;;8.70;99.90;;;;;;5470783;26;20236;-77
2024/04/26 07:29:22;;;;;;;;;;;8.80;99.90;;;;;;5451425;26;19940;-77
2024/04/26 07:31:49;;;;;;;;;;;8.80;99.90;;;;;;5423390;26;20073;-77
2024/04/26 07:34:16;;;;;;;;;;;9.00;99.90;;;;;;5453261;26;19933;-75
2024/04/26 07:36:45;;;;;;;;;;;9.10;99.90;;;;;;5453377;26;20252;-76
2024/04/26 07:39:15;;;;;;;;;;;9.20;99.90;;;;;;5452080;26;19928;-76
2024/04/26 07:41:45;;;;;;;;;;;9.20;99.90;;;;;;5417944;26;19929;-77
2024/04/26 07:44:14;;;;;;;;;;;9.30;99.90;;;;;;5416811;26;19929;-76
2024/04/26 07:46:41;;;;;;;;;;;9.30;99.90;;;;;;5416614;26;20373;-75
2024/04/26 07:49:08;;;;;;;;;;;9.40;99.90;;;;;;5433077;26;19928;-77
2024/04/26 07:51:34;;;;;;;;;;;9.60;99.90;;;;;;5453191;26;19957;-76
2024/04/26 07:54:01;;;;;;;;;;;9.70;99.90;;;;;;5453142;26;19940;-76
2024/04/26 07:56:26;;;;;;;;;;;9.60;99.90;;;;;;5644704;21;19931;-80
2024/04/26 07:58:54;;;;;;;;;;;9.70;99.90;;;;;;5644649;21;19929;-79
2024/04/26 08:01:22;;;;;;;;;;;9.80;99.90;;;;;;5387703;26;20374;-79
2024/04/26 08:03:48;;;;;;;;;;;9.80;99.90;;;;;;5387214;26;19957;-80
2024/04/26 08:06:15;;;;;;;;;;;9.90;99.90;;;;;;5387131;26;19929;-79
2024/04/26 08:08:41;;;;;;;;;;;10.00;99.90;;;;;;5366046;26;19944;-82
2024/04/26 08:11:09;;;;;;;;;;;10.10;99.90;;;;;;5394643;26;19929;-81
2024/04/26 08:13:48;;;;;;;;;;;10.10;99.90;;;;;;5430813;26;20365;-80
2024/04/26 08:16:14;;;;;;;;;;;10.00;99.90;;;;;;5420642;26;19995;-80
2024/04/26 08:18:39;;;;;;;;;;;10.00;99.90;;;;;;5329100;26;19937;-78
2024/04/26 08:21:05;;;;;;;;;;;10.00;99.90;;;;;;5358305;26;19929;-79
2024/04/26 08:23:32;;;;;;;;;;;10.00;99.90;;;;;;5357557;26;19929;-79
2024/04/26 08:26:02;;;;;;;;;;;10.00;99.90;;;;;;5386983;26;19995;-79
2024/04/26 08:28:32;;;;;;;;;;;10.10;99.90;;;;;;5419582;26;19939;-79
2024/04/26 08:30:58;;;;;;;;;;;10.10;99.90;;;;;;5328897;26;19937;-79
2024/04/26 08:33:23;;;;;;;;;;;10.20;99.90;;;;;;5358555;26;19994;-79
2024/04/26 08:35:49;;;;;;;;;;;10.20;99.90;;;;;;5351726;26;19941;-79
2024/04/26 08:38:16;;;;;;;;;;;10.20;99.90;;;;;;5413489;26;20349;-79
2024/04/26 08:40:42;;;;;;;;;;;10.30;99.90;;;;;;5388068;26;19929;-79
2024/04/26 08:43:08;;;;;;;;;;;10.30;99.90;;;;;;5388046;26;19929;-80
2024/04/26 08:45:39;;;;;;;;;;;10.40;99.90;;;;;;5348788;26;20304;-80
2024/04/26 08:48:06;;;;;;;;;;;10.60;99.90;;;;;;5351668;26;19929;-80
2024/04/26 08:50:35;;;;;;;;;;;10.70;99.90;;;;;;5377993;26;19930;-79
2024/04/26 08:53:05;;;;;;;;;;;10.90;99.90;;;;;;5381148;26;20353;-80
2024/04/26 08:55:33;;;;;;;;;;;11.00;99.90;;;;;;5386348;26;19956;-79
2024/04/26 08:58:03;;;;;;;;;;;11.20;99.90;;;;;;5393315;26;19938;-79
2024/04/26 09:00:29;;;;;;;;;;;11.20;99.90;;;;;;5324049;26;19934;-79
2024/04/26 09:02:56;;;;;;;;;;;11.10;99.90;;;;;;5381151;26;19936;-79
2024/04/26 09:05:22;;;;;;;;;;;11.20;99.90;;;;;;5353014;26;19962;-80
2024/04/26 09:07:48;;;;;;;;;;;11.30;99.90;;;;;;5352172;26;19936;-80
2024/04/26 09:10:15;;;;;;;;;;;11.30;99.90;;;;;;5378049;26;19929;-80
2024/04/26 09:12:41;;;;;;;;;;;11.30;99.90;;;;;;5358501;26;20244;-80
2024/04/26 09:15:06;;;;;;;;;;;11.40;99.90;;;;;;5387267;26;19952;-80
2024/04/26 09:17:34;;;;;;;;;;;11.40;99.90;;;;;;5387239;26;19929;-80
2024/04/26 09:19:59;;;;;;;;;;;11.60;99.90;;;;;;5386488;26;19930;-80
2024/04/26 09:22:28;;;;;;;;;;;11.70;99.90;;;;;;5357566;26;20609;-80
2024/04/26 09:24:55;;;;;;;;;;;11.80;99.80;;;;;;5330318;26;19929;-79
2024/04/26 09:27:21;;;;;;;;;;;11.80;99.90;;;;;;5358390;26;19937;-80
2024/04/26 09:29:46;;;;;;;;;;;11.80;99.60;;;;;;5357206;26;19936;-80
2024/04/26 09:32:14;;;;;;;;;;;11.80;99.60;;;;;;5396373;26;19935;-80
2024/04/26 09:34:41;;;;;;;;;;;11.80;99.80;;;;;;5386175;26;19956;-80
2024/04/26 09:37:07;;;;;;;;;;;11.90;99.70;;;;;;5392821;26;19929;-80
2024/04/26 09:39:34;;;;;;;;;;;11.90;98.30;;;;;;5358713;26;19933;-80
2024/04/26 09:42:01;;;;;;;;;;;11.90;98.60;;;;;;5358599;26;19936;-80
2024/04/26 09:44:27;;;;;;;;;;;12.00;99.00;;;;;;5369544;26;20357;-80
2024/04/26 09:46:57;;;;;;;;;;;11.90;97.70;;;;;;5368668;26;19929;-80
2024/04/26 09:49:23;;;;;;;;;;;12.00;98.20;;;;;;5395019;26;19936;-80
2024/04/26 09:51:52;;;;;;;;;;;12.00;98.40;;;;;;5364917;26;20371;-80
2024/04/26 09:54:19;;;;;;;;;;;12.00;98.50;;;;;;5383726;26;19929;-80
2024/04/26 09:56:44;;;;;;;;;;;12.10;98.20;;;;;;5382007;26;19930;-80
2024/04/26 09:59:10;;;;;;;;;;;12.00;98.20;;;;;;5361837;26;19939;-80
2024/04/26 10:01:37;;;;;;;;;;;12.10;97.70;;;;;;5361422;26;19929;-80
2024/04/26 10:04:03;;;;;;;;;;;12.10;98.50;;;;;;5329152;26;19936;-80
2024/04/26 10:06:41;;;;;;;;;;;12.10;98.20;;;;;;5370909;26;19928;-81
2024/04/26 10:09:09;;;;;;;;;;;12.10;98.20;;;;;;5353565;26;19928;-81
2024/04/26 10:11:57;;;;;;;;;;;12.20;98.40;;;;;;5333040;26;19998;-80
2024/04/26 10:14:32;;;;;;;;;;;12.20;98.30;;;;;;5387318;26;20269;-80
2024/04/26 10:17:09;;;;;;;;;;;12.30;98.80;;;;;;5352797;26;19937;-80
2024/04/26 10:19:39;;;;;;;;;;;12.30;98.70;;;;;;5413864;26;19929;-81
2024/04/26 10:22:06;;;;;;;;;;;12.40;98.60;;;;;;5328266;26;19962;-79
2024/04/26 10:24:47;;;;;;;;;;;12.40;98.10;;;;;;5350202;26;19997;-79
2024/04/26 10:27:13;;;;;;;;;;;12.40;97.80;;;;;;5380093;26;19937;-79
2024/04/26 10:29:40;;;;;;;;;;;12.40;97.70;;;;;;5373924;26;20241;-79
2024/04/26 10:32:06;;;;;;;;;;;12.50;97.70;;;;;;5385080;26;19929;-79
2024/04/26 10:34:32;;;;;;;;;;;12.50;98.00;;;;;;5356083;26;19936;-79
2024/04/26 10:37:00;;;;;;;;;;;12.60;97.50;;;;;;5358108;26;20336;-80
2024/04/26 10:39:27;;;;;;;;;;;12.80;97.40;;;;;;5371554;26;19957;-80
2024/04/26 10:41:52;;;;;;;;;;;12.90;97.20;;;;;;5386261;26;19978;-79
2024/04/26 10:44:19;;;;;;;;;;;12.90;96.90;;;;;;5355556;26;19932;-80
2024/04/26 10:46:45;;;;;;;;;;;12.80;96.50;;;;;;5386687;26;19936;-79
2024/04/26 10:49:13;;;;;;;;;;;12.90;94.60;;;;;;5388348;26;19929;-79
2024/04/26 10:51:40;;;;;;;;;;;12.80;94.80;;;;;;5380939;26;19953;-80
2024/04/26 10:54:06;;;;;;;;;;;12.80;95.00;;;;;;5324849;26;19939;-80
2024/04/26 10:56:40;;;;;;;;;;;12.80;94.30;;;;;;5391555;26;19961;-80
2024/04/26 10:59:26;;;;;;;;;;;12.70;94.50;;;;;;5407875;26;19936;-79
2024/04/26 11:02:02;;;;;;;;;;;12.70;93.70;;;;;;5389668;26;19929;-79
2024/04/26 11:04:32;;;;;;;;;;;12.60;93.20;;;;;;5359365;26;20039;-80
2024/04/26 11:07:19;;;;;;;;;;;12.60;93.20;;;;;;5389134;26;19930;-79
2024/04/26 11:09:46;;;;;;;;;;;12.60;93.70;;;;;;5388425;26;19929;-79
2024/04/26 11:15:24;;;;;;;;;;;12.80;93.10;;;;;;5368426;26;19933;-79
2024/04/26 11:17:58;;;;;;;;;;;12.60;92.30;;;;;;5352687;26;19936;-79
2024/04/26 11:20:26;;;;;;;;;;;12.60;92.30;;;;;;5355000;26;19936;-80
2024/04/26 11:22:55;;;;;;;;;;;12.60;92.40;;;;;;5357832;26;19929;-80
2024/04/26 11:25:30;;;;;;;;;;;12.60;92.10;;;;;;5331193;26;19929;-79
2024/04/26 11:28:00;;;;;;;;;;;12.70;91.80;;;;;;5330558;26;19928;-80
2024/04/26 11:30:25;;;;;;;;;;;12.80;91.60;;;;;;5330685;26;19929;-80
2024/04/26 11:32:51;;;;;;;;;;;12.70;91.30;;;;;;5357776;26;19930;-80
2024/04/26 11:35:21;;;;;;;;;;;12.80;90.80;;;;;;5383907;26;19929;-80
2024/04/26 11:37:47;;;;;;;;;;;12.80;90.90;;;;;;5330294;26;19984;-79
2024/04/26 11:40:19;;;;;;;;;;;12.80;91.10;;;;;;5360710;26;19928;-79
2024/04/26 11:42:45;;;;;;;;;;;12.80;91.60;;;;;;5396793;26;20256;-80
2024/04/26 11:45:11;;;;;;;;;;;12.90;91.40;;;;;;5344802;26;19936;-80
2024/04/26 11:47:37;;;;;;;;;;;12.90;91.90;;;;;;5354518;26;19929;-80
2024/04/26 11:50:09;;;;;;;;;;;12.90;90.30;;;;;;5395526;26;19940;-80
2024/04/26 11:52:35;;;;;;;;;;;13.00;91.30;;;;;;5362330;26;20316;-80
2024/04/26 11:55:21;;;;;;;;;;;13.00;90.30;;;;;;5418992;26;19929;-80
2024/04/26 11:57:50;;;;;;;;;;;13.10;90.90;;;;;;5355676;26;19930;-79
2024/04/26 12:00:15;;;;;;;;;;;13.10;89.70;;;;;;5392646;26;19929;-79
2024/04/26 12:02:50;;;;;;;;;;;13.10;90.10;;;;;;5359899;26;19933;-80
2024/04/26 12:05:20;;;;;;;;;;;13.10;88.10;;;;;;5369633;26;19929;-80
2024/04/26 12:07:49;;;;;;;;;;;13.10;89.50;;;;;;5329805;26;19999;-80
2024/04/26 12:10:37;;;;;;;;;;;13.10;88.80;;;;;;5376919;26;19938;-79
2024/04/26 12:13:13;;;;;;;;;;;13.20;88.60;;;;;;5390315;26;20031;-80
2024/04/26 12:15:58;;;;;;;;;;;;;;;;;;;;;
2024/04/26 12:19:01;;;;;;;;;;;13.20;88.10;;;;;;5385535;26;19929;-79
2024/04/26 12:21:43;;;;;;;;;;;13.30;88.70;;;;;;5390707;26;19929;-80
2024/04/26 12:24:14;;;;;;;;;;;13.30;88.30;;;;;;5401533;26;19960;-80
2024/04/26 12:27:03;;;;;;;;;;;13.30;88.90;;;;;;5386335;26;19942;-78
2024/04/26 12:29:31;;;;;;;;;;;13.30;88.20;;;;;;5370112;26;19932;-80
2024/04/26 12:31:59;;;;;;;;;;;13.30;86.80;;;;;;5431508;26;19929;-80
2024/04/26 12:34:27;;;;;;;;;;;13.20;86.20;;;;;;5387589;26;19929;-79
2024/04/26 12:37:09;;;;;;;;;;;13.10;87.10;;;;;;5385206;26;20341;-80
2024/04/26 12:40:16;;;;;;;;;;;;;;;;;;;;;
2024/04/26 12:42:45;;;;;;;;;;;13.20;87.80;;;;;;5388126;26;19936;-80
2024/04/26 12:45:15;;;;;;;;;;;13.20;89.40;;;;;;5367655;26;20422;-80
2024/04/26 12:47:47;;;;;;;;;;;13.20;89.40;;;;;;5401939;26;19933;-80
2024/04/26 12:50:14;;;;;;;;;;;13.10;89.20;;;;;;5359513;26;19929;-80
2024/04/26 12:52:41;;;;;;;;;;;13.00;87.10;;;;;;5359194;26;19929;-80
2024/04/26 12:55:10;;;;;;;;;;;13.10;88.20;;;;;;5366057;26;19975;-80
2024/04/26 13:00:11;;;;;;;;;;;13.00;87.40;;;;;;5866574;21;20085;-80
2024/04/26 13:02:41;;;;;;;;;;;12.90;89.60;;;;;;5352038;26;19941;-78
2024/04/26 13:05:08;;;;;;;;;;;13.00;87.50;;;;;;5351358;26;19937;-81
2024/04/26 13:07:34;;;;;;;;;;;12.90;87.80;;;;;;5352193;26;20289;-80
2024/04/26 13:10:01;;;;;;;;;;;12.90;88.80;;;;;;5294462;26;19933;-80
2024/04/26 13:12:30;;;;;;;;;;;12.90;87.90;;;;;;5323225;26;19936;-80
2024/04/26 13:14:55;;;;;;;;;;;12.90;88.00;;;;;;5316464;26;19934;-80
2024/04/26 13:17:23;;;;;;;;;;;12.90;87.90;;;;;;5315861;26;19940;-79
2024/04/26 13:19:48;;;;;;;;;;;12.90;88.20;;;;;;5345674;26;19938;-79
2024/04/26 13:22:14;;;;;;;;;;;12.90;88.90;;;;;;5351079;26;20022;-79
2024/04/26 13:24:49;;;;;;;;;;;12.80;92.90;;;;;;5294279;26;19954;-79
2024/04/26 13:27:15;;;;;;;;;;;12.70;97.30;;;;;;5350832;26;19930;-79
2024/04/26 13:29:45;;;;;;;;;;;12.40;99.20;;;;;;5350682;26;20313;-79
2024/04/26 13:32:11;;;;;;;;;;;12.30;99.90;;;;;;5380937;26;19933;-78
2024/04/26 13:34:37;;;;;;;;;;;12.10;99.90;;;;;;5398778;26;19940;-79
2024/04/26 13:37:04;;;;;;;;;;;12.00;99.90;;;;;;5357149;26;19938;-79
2024/04/26 13:39:34;;;;;;;;;;;11.80;99.90;;;;;;5322320;26;19936;-79
2024/04/26 13:42:00;;;;;;;;;;;11.70;99.90;;;;;;5322234;26;20341;-79
2024/04/26 13:44:28;;;;;;;;;;;11.60;99.90;;;;;;5348465;26;19941;-79
2024/04/26 13:46:54;;;;;;;;;;;11.50;99.90;;;;;;5316104;26;19945;-79
2024/04/26 13:49:19;;;;;;;;;;;11.50;99.90;;;;;;5347926;26;19956;-79
2024/04/26 13:51:48;;;;;;;;;;;11.60;99.90;;;;;;5356998;26;19970;-79
2024/04/26 13:54:15;;;;;;;;;;;11.60;99.90;;;;;;5366167;26;19930;-79
2024/04/26 13:56:43;;;;;;;;;;;11.50;99.90;;;;;;5323312;26;19937;-80
2024/04/26 13:59:13;;;;;;;;;;;11.50;99.90;;;;;;5321994;26;19930;-79
2024/04/26 14:01:46;;;;;;;;;;;11.40;99.90;;;;;;5377322;26;19933;-79
2024/04/26 14:04:20;;;;;;;;;;;11.40;99.90;;;;;;5363360;26;19930;-79
2024/04/26 14:06:48;;;;;;;;;;;11.40;99.90;;;;;;5381250;26;19929;-79
2024/04/26 14:09:18;;;;;;;;;;;11.20;99.90;;;;;;5378327;26;20314;-79
2024/04/26 14:11:55;;;;;;;;;;;11.30;99.90;;;;;;5351030;26;19930;-79
2024/04/26 14:14:39;;;;;;;;;;;11.30;99.90;;;;;;5357707;26;19930;-79
2024/04/26 14:17:23;;;;;;;;;;;11.20;99.90;;;;;;5353463;26;19929;-79
2024/04/26 14:19:48;;;;;;;;;;;11.30;99.90;;;;;;5342970;26;19957;-79
2024/04/26 14:22:34;;;;;;;;;;;;;;;;;;;;;
2024/04/26 14:25:28;;;;;;;;;;;11.20;99.90;;;;;;5366884;26;19940;-79
2024/04/26 14:28:06;;;;;;;;;;;11.20;99.90;;;;;;5317184;26;19937;-79
2024/04/26 14:30:43;;;;;;;;;;;11.10;99.90;;;;;;5290628;26;19936;-79
2024/04/26 14:33:13;;;;;;;;;;;11.10;99.90;;;;;;5291545;26;20007;-79
2024/04/26 14:35:44;;;;;;;;;;;11.00;99.90;;;;;;5321192;26;19938;-79
2024/04/26 14:38:12;;;;;;;;;;;11.00;99.90;;;;;;5348305;26;19941;-79
2024/04/26 14:40:40;;;;;;;;;;;10.90;99.90;;;;;;5306520;26;19938;-79